Terminal Aerodrome Forecast
Issued by NWS

Home | Current Version | Previous Version | Text Only | Print | Product List | Glossary On
Versions: 1 2 3 4 5 6 7 8 9 10 11 12 13 14 15 16 17 18 19 20 21 22 23 24
000
FTUS41 KRLX 200200 AAA
TAFCKB
TAF AMD
KCKB 200228Z 2002/2024 VRB03KT 6SM HZ FEW040
     FM200600 00000KT 4SM BR SCT035 BKN060
      TEMPO 2007/2010 2SM TSRA BR BKN020CB
     FM201000 00000KT 3SM SHRA BR VCTS BKN025CB
     FM201400 20004KT 5SM -SHRA BR BKN025
     FM201800 23006KT 6SM HZ BKN035=

USA.gov is the U.S. government's official web portal to all federal, state and local government web resources and services.